Time;durP1;ratioP1;P1;durP2;ratioP2;P2;SDS_P1;SDS_P2;PMS_P1;PMS_P2;Temp;Humidity;BMP_temperature;BMP_pressure;BME280_temperature;BME280_humidity;BME280_pressure;Samples;Min_cycle;Max_cycle;Signal;HPM_P1;HPM_P2
2021/11/16 00:01:41;;;;;;;73.03;53.37;;;6.50;99.90;;;;;;5014485;28;20907;-92
2021/11/16 00:04:08;;;;;;;77.77;56.03;;;6.60;99.90;;;;;;5008570;28;20573;-92
2021/11/16 00:06:35;;;;;;;73.78;54.45;;;6.50;99.90;;;;;;5026860;28;20418;-91
2021/11/16 00:09:02;;;;;;;78.32;57.03;;;6.60;99.90;;;;;;5027677;28;20383;-92
2021/11/16 00:11:29;;;;;;;76.68;54.55;;;6.50;99.90;;;;;;5027150;28;20402;-91
2021/11/16 00:13:55;;;;;;;79.47;56.15;;;6.60;99.90;;;;;;4998350;28;20381;-92
2021/11/16 00:16:21;;;;;;;77.32;56.88;;;6.70;99.90;;;;;;5012075;28;20835;-92
2021/11/16 00:18:50;;;;;;;78.43;56.00;;;6.60;99.90;;;;;;4999346;28;20754;-92
2021/11/16 00:21:19;;;;;;;82.05;58.17;;;6.50;99.90;;;;;;5010985;28;20395;-92
2021/11/16 00:23:46;;;;;;;82.18;58.50;;;6.50;99.90;;;;;;5001897;28;20393;-91
2021/11/16 00:26:13;;;;;;;78.97;57.97;;;6.50;99.90;;;;;;5027752;28;20474;-90
2021/11/16 00:28:39;;;;;;;83.80;58.53;;;6.60;99.90;;;;;;5027726;28;20472;-92
2021/11/16 00:31:05;;;;;;;81.13;58.07;;;6.40;99.90;;;;;;5027231;28;20441;-91
2021/11/16 00:33:31;;;;;;;85.30;59.50;;;6.50;99.90;;;;;;5028678;28;20379;-92
2021/11/16 00:35:58;;;;;;;84.30;59.80;;;6.50;99.90;;;;;;4997567;28;20418;-91
2021/11/16 00:38:26;;;;;;;88.10;61.67;;;6.60;99.90;;;;;;5027788;28;20466;-91
2021/11/16 00:40:53;;;;;;;89.43;62.05;;;6.50;99.90;;;;;;5027017;28;20395;-91
2021/11/16 00:43:18;;;;;;;89.30;63.22;;;6.50;99.90;;;;;;4994198;28;20391;-91
2021/11/16 00:45:46;;;;;;;86.93;60.80;;;6.50;99.90;;;;;;5027407;28;20390;-92
2021/11/16 00:48:14;;;;;;;86.32;60.83;;;6.60;99.90;;;;;;5027696;28;20451;-91
2021/11/16 00:50:42;;;;;;;84.93;60.20;;;6.60;99.90;;;;;;5012357;28;20411;-91
2021/11/16 00:53:10;;;;;;;89.95;62.00;;;6.60;99.90;;;;;;5006867;28;20493;-91
2021/11/16 00:55:36;;;;;;;88.03;61.53;;;6.50;99.90;;;;;;5031063;28;20421;-92
2021/11/16 00:58:02;;;;;;;84.70;61.60;;;6.60;99.90;;;;;;5030735;28;20741;-91
2021/11/16 01:00:28;;;;;;;95.22;62.80;;;6.50;99.90;;;;;;5015991;28;20412;-91
2021/11/16 01:02:55;;;;;;;87.22;61.55;;;6.50;99.90;;;;;;5018491;28;20416;-90
2021/11/16 01:05:21;;;;;;;90.18;62.08;;;6.50;99.90;;;;;;5013354;28;20416;-91
2021/11/16 01:07:46;;;;;;;92.30;63.13;;;6.50;99.90;;;;;;5030661;28;20897;-91
2021/11/16 01:10:15;;;;;;;96.80;65.17;;;6.50;99.90;;;;;;4997830;28;20510;-93
2021/11/16 01:12:41;;;;;;;89.63;62.25;;;6.40;99.90;;;;;;5031508;28;20386;-91
2021/11/16 01:15:10;;;;;;;91.35;62.92;;;6.40;99.90;;;;;;5031462;28;20400;-92
2021/11/16 01:17:36;;;;;;;93.35;63.42;;;6.50;99.90;;;;;;5034677;28;20397;-91
2021/11/16 01:20:06;;;;;;;89.67;62.33;;;6.50;99.90;;;;;;5000303;28;20383;-92
2021/11/16 01:22:32;;;;;;;92.43;64.72;;;6.50;99.90;;;;;;5017200;28;20437;-91
2021/11/16 01:24:58;;;;;;;89.35;63.67;;;6.50;99.90;;;;;;5030638;28;21156;-91
2021/11/16 01:27:25;;;;;;;92.97;63.80;;;6.50;99.90;;;;;;5004168;28;20373;-91
2021/11/16 01:29:52;;;;;;;92.90;64.22;;;6.50;99.90;;;;;;5014977;28;20389;-91
2021/11/16 01:32:36;;;;;;;92.05;64.68;;;6.50;99.90;;;;;;5012916;28;20393;-92
2021/11/16 01:35:04;;;;;;;92.22;64.32;;;6.60;99.90;;;;;;5015321;28;20401;-91
2021/11/16 01:37:30;;;;;;;85.13;61.42;;;6.50;99.90;;;;;;5008674;28;20477;-91
2021/11/16 01:39:56;;;;;;;91.93;63.03;;;6.50;99.90;;;;;;5033872;28;20390;-90
2021/11/16 01:42:22;;;;;;;88.35;60.40;;;6.60;99.90;;;;;;5014197;28;20453;-92
2021/11/16 01:44:50;;;;;;;86.28;60.53;;;6.50;99.90;;;;;;5007435;28;20482;-91
2021/11/16 01:47:16;;;;;;;79.95;56.67;;;6.60;99.90;;;;;;5029622;28;20851;-90
2021/11/16 01:49:42;;;;;;;83.53;59.97;;;6.60;99.90;;;;;;4998355;28;20399;-91
2021/11/16 01:52:08;;;;;;;86.60;59.63;;;6.70;99.90;;;;;;5030076;28;20526;-91
2021/11/16 01:54:35;;;;;;;89.22;61.80;;;6.60;99.90;;;;;;5032267;28;20801;-90
2021/11/16 01:57:01;;;;;;;85.55;59.33;;;6.60;99.90;;;;;;5017950;28;20394;-91
2021/11/16 01:59:27;;;;;;;82.53;59.80;;;6.70;99.90;;;;;;5004792;28;20908;-91
2021/11/16 02:01:55;;;;;;;89.70;61.28;;;6.70;99.90;;;;;;5016125;28;20749;-92
2021/11/16 02:04:22;;;;;;;86.75;61.42;;;6.70;99.90;;;;;;5028762;28;20477;-91
2021/11/16 02:06:48;;;;;;;87.22;61.40;;;6.70;99.90;;;;;;4999871;28;20403;-90
2021/11/16 02:09:19;;;;;;;87.20;60.50;;;6.70;99.90;;;;;;5029543;28;20394;-91
2021/11/16 02:11:45;;;;;;;89.90;61.67;;;6.60;99.90;;;;;;5001085;28;20487;-91
2021/11/16 02:14:14;;;;;;;97.53;64.65;;;6.60;99.90;;;;;;5018161;28;20388;-90
2021/11/16 02:16:40;;;;;;;93.80;63.85;;;6.60;99.90;;;;;;5019107;28;20402;-90
2021/11/16 02:19:07;;;;;;;91.30;64.03;;;6.60;99.90;;;;;;5016660;28;20395;-91
2021/11/16 02:21:33;;;;;;;97.07;65.20;;;6.50;99.90;;;;;;5030502;28;20493;-91
2021/11/16 02:24:00;;;;;;;95.13;64.93;;;6.50;99.90;;;;;;5028932;28;20395;-91
2021/11/16 02:26:26;;;;;;;96.50;64.93;;;6.50;99.90;;;;;;5029077;28;20398;-90
2021/11/16 02:28:52;;;;;;;95.17;66.30;;;6.50;99.90;;;;;;5000399;28;20379;-90
2021/11/16 02:31:18;;;;;;;95.72;65.35;;;6.50;99.90;;;;;;5029187;28;20423;-92
2021/11/16 02:33:45;;;;;;;97.07;66.33;;;6.50;99.90;;;;;;5029315;28;20395;-92
2021/11/16 02:36:13;;;;;;;98.50;65.90;;;6.50;99.90;;;;;;4999708;28;20464;-91
2021/11/16 02:38:39;;;;;;;96.50;67.88;;;6.50;99.90;;;;;;5028751;28;20466;-91
2021/11/16 02:41:05;;;;;;;98.65;66.75;;;6.40;99.90;;;;;;5029493;28;20393;-90
2021/11/16 02:43:33;;;;;;;98.95;67.35;;;6.40;99.90;;;;;;5028929;28;20379;-91
2021/11/16 02:46:02;;;;;;;93.55;66.03;;;6.50;99.90;;;;;;5028881;28;20394;-90
2021/11/16 02:48:28;;;;;;;95.82;67.38;;;6.60;99.90;;;;;;5003403;28;20437;-90
2021/11/16 02:51:00;;;;;;;95.75;65.20;;;6.50;99.90;;;;;;5018731;28;20430;-91
2021/11/16 02:53:27;;;;;;;92.43;65.00;;;6.50;99.90;;;;;;5014622;28;20383;-91
2021/11/16 02:55:54;;;;;;;93.43;64.60;;;6.40;99.90;;;;;;5028592;28;20534;-91
2021/11/16 02:58:21;;;;;;;99.88;66.28;;;6.40;99.90;;;;;;5027457;28;20467;-91
2021/11/16 03:00:54;;;;;;;91.97;64.93;;;6.40;99.90;;;;;;5028344;28;20403;-91
2021/11/16 03:03:21;;;;;;;100.15;67.88;;;6.50;99.90;;;;;;5029719;28;20418;-91
2021/11/16 03:05:47;;;;;;;96.28;66.07;;;6.50;99.90;;;;;;5029007;28;20478;-91
2021/11/16 03:08:21;;;;;;;101.05;67.57;;;6.50;99.90;;;;;;5027851;28;20522;-89
2021/11/16 03:10:50;;;;;;;98.53;66.95;;;6.40;99.90;;;;;;4996477;28;20494;-90
2021/11/16 03:13:19;;;;;;;99.55;69.15;;;6.30;99.90;;;;;;5028006;28;20391;-89
2021/11/16 03:15:45;;;;;;;105.03;69.15;;;6.40;99.90;;;;;;5028360;28;20407;-89
2021/11/16 03:18:11;;;;;;;100.35;67.95;;;6.30;99.90;;;;;;5029669;28;20419;-91
2021/11/16 03:20:38;;;;;;;103.00;69.65;;;6.30;99.90;;;;;;4996167;28;20425;-89
2021/11/16 03:23:13;;;;;;;95.82;66.22;;;6.30;99.90;;;;;;5027765;28;20406;-89
2021/11/16 03:25:47;;;;;;;97.68;67.10;;;6.30;99.90;;;;;;5028238;28;20413;-88
2021/11/16 03:28:15;;;;;;;97.25;67.38;;;6.40;99.90;;;;;;5027529;28;20979;-91
2021/11/16 03:30:47;;;;;;;103.28;71.53;;;6.40;99.90;;;;;;5029381;28;20419;-90
2021/11/16 03:33:14;;;;;;;101.70;69.68;;;6.30;99.90;;;;;;5029594;28;20881;-90
2021/11/16 03:35:40;;;;;;;94.80;67.32;;;6.30;99.90;;;;;;4986533;28;20417;-91
2021/11/16 03:38:07;;;;;;;94.82;65.85;;;6.30;99.90;;;;;;5028856;28;20652;-90
2021/11/16 03:40:35;;;;;;;98.90;67.80;;;6.30;99.90;;;;;;5028912;28;20390;-91
2021/11/16 03:43:01;;;;;;;102.80;70.97;;;6.30;99.90;;;;;;4998688;28;20387;-92
2021/11/16 03:45:32;;;;;;;99.30;68.32;;;6.30;99.90;;;;;;5039336;28;20889;-88
2021/11/16 03:48:00;;;;;;;99.88;69.85;;;6.30;99.90;;;;;;5028005;28;20391;-88
2021/11/16 03:50:28;;;;;;;95.65;67.20;;;6.30;99.90;;;;;;5028689;28;20387;-91
2021/11/16 03:52:57;;;;;;;100.82;70.28;;;6.30;99.90;;;;;;5006812;28;20390;-90
2021/11/16 03:55:29;;;;;;;98.80;68.50;;;6.30;99.90;;;;;;5015257;28;20492;-90
2021/11/16 03:57:57;;;;;;;99.00;68.43;;;6.30;99.90;;;;;;5015965;28;20405;-91
2021/11/16 04:00:49;;;;;;;98.10;68.68;;;6.30;99.90;;;;;;4996891;28;20414;-91
2021/11/16 04:03:16;;;;;;;97.07;69.43;;;6.30;99.90;;;;;;5026957;28;20403;-91
2021/11/16 04:05:42;;;;;;;96.47;68.45;;;6.20;99.90;;;;;;5028524;28;20394;-87
2021/11/16 04:08:08;;;;;;;93.77;67.73;;;6.30;99.90;;;;;;4994588;28;20411;-87
2021/11/16 04:10:34;;;;;;;98.28;69.35;;;6.30;99.90;;;;;;5012378;28;20419;-87
2021/11/16 04:13:01;;;;;;;99.53;69.13;;;6.30;99.90;;;;;;5027817;28;20830;-88
2021/11/16 04:15:29;;;;;;;96.88;69.10;;;6.30;99.90;;;;;;5007296;28;20409;-91
2021/11/16 04:17:57;;;;;;;102.22;71.28;;;6.30;99.90;;;;;;5012571;28;20386;-89
2021/11/16 04:20:29;;;;;;;97.82;70.20;;;6.20;99.90;;;;;;5014377;28;20397;-90
2021/11/16 04:22:56;;;;;;;103.90;71.43;;;6.30;99.90;;;;;;5006856;28;20415;-89
2021/11/16 04:25:32;;;;;;;97.43;69.75;;;6.20;99.90;;;;;;5027858;28;20385;-94
2021/11/16 04:27:58;;;;;;;99.07;69.38;;;6.20;99.90;;;;;;5015935;28;20891;-91
2021/11/16 04:30:26;;;;;;;98.30;69.20;;;6.20;99.90;;;;;;5001705;28;20407;-92
2021/11/16 04:32:52;;;;;;;96.70;67.80;;;6.40;99.90;;;;;;5028563;28;20379;-92
2021/11/16 04:35:18;;;;;;;96.82;67.53;;;6.40;99.90;;;;;;5001128;28;20843;-91
2021/11/16 04:37:46;;;;;;;96.30;67.53;;;6.40;99.90;;;;;;5016833;28;20486;-92
2021/11/16 04:40:17;;;;;;;100.30;69.72;;;6.50;99.90;;;;;;5014459;28;20396;-92
2021/11/16 04:42:43;;;;;;;98.65;69.05;;;6.50;99.90;;;;;;5008117;28;20455;-91
2021/11/16 04:45:12;;;;;;;95.13;66.15;;;6.50;99.90;;;;;;5027018;28;20422;-92
2021/11/16 04:47:50;;;;;;;92.13;65.30;;;6.50;99.90;;;;;;5006201;28;20460;-92
2021/11/16 04:55:33;;;;;;;90.30;65.70;;;6.60;99.90;;;;;;5011218;28;20417;-91
2021/11/16 05:03:42;;;;;;;91.05;63.95;;;6.50;99.90;;;;;;5031137;28;20416;-91
2021/11/16 05:06:08;;;;;;;87.77;63.00;;;6.60;99.90;;;;;;4997864;28;20439;-92
2021/11/16 05:08:34;;;;;;;81.70;59.72;;;6.50;99.90;;;;;;5033580;28;20763;-92
2021/11/16 05:11:10;;;;;;;91.07;64.22;;;6.50;99.90;;;;;;5036053;28;20461;-91
2021/11/16 05:13:38;;;;;;;82.30;60.15;;;6.50;99.90;;;;;;5028066;28;20388;-91
2021/11/16 05:16:06;;;;;;;88.63;63.55;;;6.50;99.90;;;;;;5015143;28;20413;-91
2021/11/16 05:18:32;;;;;;;85.82;60.88;;;6.40;99.90;;;;;;5011767;28;20404;-91
2021/11/16 05:20:58;;;;;;;86.32;61.90;;;6.40;99.90;;;;;;5013910;28;20892;-91
2021/11/16 05:23:23;;;;;;;88.30;61.45;;;6.50;99.90;;;;;;5013399;28;20385;-93
2021/11/16 05:25:51;;;;;;;84.63;60.50;;;6.60;99.90;;;;;;4997816;28;20761;-92
2021/11/16 05:28:18;;;;;;;86.90;61.45;;;6.50;99.90;;;;;;5026400;28;20943;-90
2021/11/16 05:30:44;;;;;;;88.72;63.63;;;6.50;99.90;;;;;;5025842;28;20441;-87
2021/11/16 05:33:10;;;;;;;84.47;60.85;;;6.60;99.90;;;;;;5010738;28;20391;-91
2021/11/16 05:35:36;;;;;;;89.97;65.20;;;6.50;99.90;;;;;;4979006;28;20482;-92
2021/11/16 05:38:02;;;;;;;92.23;64.30;;;6.50;99.90;;;;;;4974429;28;20404;-90
2021/11/16 05:40:27;;;;;;;89.20;62.70;;;6.50;99.90;;;;;;4990926;28;20391;-91
2021/11/16 05:42:53;;;;;;;91.47;63.80;;;6.50;99.90;;;;;;4997326;28;20382;-92
2021/11/16 05:45:19;;;;;;;89.30;63.33;;;6.50;99.90;;;;;;4996299;28;20386;-90
2021/11/16 05:47:45;;;;;;;95.25;65.65;;;6.50;99.90;;;;;;4993859;28;20392;-91
2021/11/16 05:50:12;;;;;;;91.13;64.90;;;6.50;99.90;;;;;;4978217;28;20407;-91
2021/11/16 05:52:38;;;;;;;91.38;65.03;;;6.50;99.90;;;;;;4995922;28;20411;-87
2021/11/16 05:55:07;;;;;;;91.53;66.00;;;6.50;99.90;;;;;;4999058;28;20382;-91
2021/11/16 05:57:34;;;;;;;87.40;63.35;;;6.50;99.90;;;;;;5020157;28;20426;-91
2021/11/16 06:00:00;;;;;;;89.07;63.35;;;6.50;99.90;;;;;;5012553;28;20426;-90
2021/11/16 06:02:26;;;;;;;91.70;64.35;;;6.60;99.90;;;;;;4996926;28;20463;-92
2021/11/16 06:04:51;;;;;;;90.50;63.75;;;6.70;99.90;;;;;;5001209;28;20408;-91
2021/11/16 06:07:17;;;;;;;89.33;64.23;;;6.60;99.90;;;;;;4996341;28;20400;-94
2021/11/16 06:09:43;;;;;;;86.17;61.40;;;6.60;99.90;;;;;;4996047;28;20387;-91
2021/11/16 06:12:10;;;;;;;89.25;61.33;;;6.70;99.90;;;;;;4996496;28;20391;-93
2021/11/16 06:14:35;;;;;;;90.80;62.50;;;6.60;99.90;;;;;;4998727;28;20371;-92
2021/11/16 06:17:20;;;;;;;91.03;62.78;;;6.50;99.90;;;;;;4996466;28;20498;-91
2021/11/16 06:19:47;;;;;;;88.97;62.28;;;6.50;99.90;;;;;;4996813;28;20414;-92
2021/11/16 06:22:12;;;;;;;86.35;59.35;;;6.40;99.90;;;;;;4997584;28;20426;-92
2021/11/16 06:24:38;;;;;;;89.20;61.27;;;6.40;99.90;;;;;;4996220;28;20439;-92
2021/11/16 06:27:33;;;;;;;86.72;61.47;;;6.50;99.90;;;;;;4992539;28;20391;-92
2021/11/16 06:29:59;;;;;;;86.50;60.57;;;6.50;99.90;;;;;;4996547;28;20900;-91
2021/11/16 06:32:25;;;;;;;90.77;62.63;;;6.60;99.90;;;;;;4997042;28;20380;-90
2021/11/16 06:34:52;;;;;;;90.50;62.80;;;6.60;99.90;;;;;;5000875;28;20398;-90
2021/11/16 06:37:23;;;;;;;88.65;61.28;;;6.60;99.90;;;;;;5016562;28;20443;-90
2021/11/16 06:39:52;;;;;;;89.85;62.85;;;6.60;99.90;;;;;;5017922;28;20392;-92
2021/11/16 06:42:17;;;;;;;89.10;60.45;;;6.60;99.90;;;;;;5017355;28;20440;-90
2021/11/16 06:44:43;;;;;;;90.30;62.15;;;6.60;99.90;;;;;;5016468;28;20385;-91
2021/11/16 06:47:21;;;;;;;86.97;61.30;;;6.70;99.90;;;;;;5016162;28;20390;-90
2021/11/16 06:49:49;;;;;;;91.90;63.00;;;6.70;99.90;;;;;;5015597;28;20382;-89
2021/11/16 06:52:17;;;;;;;93.50;62.53;;;6.60;99.90;;;;;;5015068;28;20452;-91
2021/11/16 06:55:05;;;;;;;92.57;63.47;;;6.50;99.90;;;;;;5001142;28;20436;-89
2021/11/16 06:57:31;;;;;;;92.55;63.53;;;6.50;99.90;;;;;;5016142;28;20413;-91
2021/11/16 06:59:57;;;;;;;91.43;61.97;;;6.50;99.90;;;;;;5017844;28;20987;-90
2021/11/16 07:02:27;;;;;;;91.67;60.10;;;6.60;99.90;;;;;;5019797;28;20416;-91
2021/11/16 07:04:54;;;;;;;92.78;62.53;;;6.60;99.90;;;;;;5019660;28;20393;-91
2021/11/16 07:07:20;;;;;;;91.22;62.47;;;6.60;99.90;;;;;;5015896;28;20943;-92
2021/11/16 07:09:46;;;;;;;92.95;62.90;;;6.60;99.90;;;;;;5015656;28;20394;-91
2021/11/16 07:12:24;;;;;;;90.50;61.67;;;6.70;99.90;;;;;;5015719;28;20903;-91
2021/11/16 07:14:50;;;;;;;93.10;60.63;;;6.50;99.90;;;;;;5015856;28;20935;-88
2021/11/16 07:17:18;;;;;;;88.43;58.88;;;6.60;99.90;;;;;;5017132;28;20390;-91
2021/11/16 07:19:53;;;;;;;82.03;58.37;;;6.50;99.90;;;;;;5017683;28;20988;-88
2021/11/16 07:22:24;;;;;;;79.90;56.63;;;6.60;99.90;;;;;;5019081;28;20618;-92
2021/11/16 07:24:53;;;;;;;82.38;57.05;;;6.60;99.90;;;;;;5016108;28;20404;-91
2021/11/16 07:27:31;;;;;;;83.90;57.13;;;6.60;99.90;;;;;;5015860;28;20389;-91
2021/11/16 07:29:57;;;;;;;85.57;57.60;;;6.60;99.90;;;;;;5017020;28;20429;-90
2021/11/16 07:32:41;;;;;;;80.33;56.63;;;6.60;99.90;;;;;;5020164;28;20404;-90
2021/11/16 07:35:07;;;;;;;82.50;56.70;;;6.60;99.90;;;;;;5016871;28;20500;-90
2021/11/16 07:37:39;;;;;;;79.28;54.70;;;6.60;99.90;;;;;;5015360;28;20385;-88
2021/11/16 07:40:11;;;;;;;82.68;56.10;;;6.60;99.90;;;;;;5016192;28;21010;-92
2021/11/16 07:42:54;;;;;;;81.38;56.72;;;6.60;99.90;;;;;;5015847;28;20431;-92
2021/11/16 07:45:29;;;;;;;82.13;55.90;;;6.60;99.90;;;;;;5012064;28;20441;-92
2021/11/16 07:48:03;;;;;;;77.28;56.17;;;6.70;99.90;;;;;;5008563;28;20375;-92
2021/11/16 07:50:28;;;;;;;85.22;58.38;;;6.70;99.90;;;;;;5027597;28;20746;-90
2021/11/16 07:52:55;;;;;;;79.70;54.47;;;6.70;99.90;;;;;;5009570;28;20469;-88
2021/11/16 07:55:26;;;;;;;78.18;56.65;;;6.60;99.90;;;;;;5018303;28;20485;-90
2021/11/16 07:57:54;;;;;;;84.60;58.67;;;6.60;99.90;;;;;;5029068;28;20402;-91
2021/11/16 08:00:26;;;;;;;80.43;56.75;;;6.50;99.90;;;;;;4981283;28;20407;-91
2021/11/16 08:03:01;;;;;;;77.40;54.60;;;6.60;99.90;;;;;;5000617;28;20743;-90
2021/11/16 08:05:38;;;;;;;78.03;56.80;;;6.60;99.90;;;;;;4980328;28;20401;-89
2021/11/16 08:08:34;;;;;;;82.53;58.05;;;6.60;99.90;;;;;;4976837;28;20400;-90
2021/11/16 08:11:14;;;;;;;78.75;55.10;;;6.70;99.90;;;;;;4995217;28;20477;-88
2021/11/16 08:14:05;;;;;;;75.68;53.60;;;6.70;99.90;;;;;;4994548;28;20808;-91
2021/11/16 08:16:32;;;;;;;78.25;54.30;;;6.70;99.90;;;;;;4995591;28;20426;-91
2021/11/16 08:19:10;;;;;;;72.53;52.88;;;6.70;99.90;;;;;;4994723;28;20441;-89
2021/11/16 08:21:46;;;;;;;74.72;54.15;;;6.80;99.90;;;;;;4995082;28;20943;-91
2021/11/16 08:24:15;;;;;;;79.97;54.80;;;6.90;99.90;;;;;;4996234;28;20525;-90
2021/11/16 08:26:49;;;;;;;74.10;51.97;;;6.80;99.90;;;;;;4995340;28;20897;-92
2021/11/16 08:29:24;;;;;;;75.60;52.95;;;6.90;99.90;;;;;;4998918;28;20458;-93
2021/11/16 08:32:08;;;;;;;76.68;54.33;;;7.00;99.90;;;;;;5022744;28;20395;-92
2021/11/16 08:34:39;;;;;;;71.43;51.75;;;7.10;99.90;;;;;;4995261;28;20431;-92
2021/11/16 08:37:07;;;;;;;74.32;52.53;;;7.20;99.90;;;;;;5028481;28;20407;-92
2021/11/16 08:39:34;;;;;;;70.45;52.40;;;7.30;99.90;;;;;;5029878;28;20470;-90
2021/11/16 08:42:07;;;;;;;69.95;50.72;;;7.30;99.90;;;;;;5031570;28;20393;-90
2021/11/16 08:44:35;;;;;;;72.07;52.03;;;7.30;99.90;;;;;;5028156;28;20534;-90
2021/11/16 08:47:11;;;;;;;69.67;49.23;;;7.40;99.90;;;;;;5022418;28;20976;-92
2021/11/16 08:49:42;;;;;;;66.50;48.90;;;7.40;99.90;;;;;;4975242;28;20399;-92
2021/11/16 08:52:16;;;;;;;71.25;51.25;;;7.50;99.90;;;;;;5007625;28;20404;-92
2021/11/16 08:54:53;;;;;;;71.63;50.20;;;7.60;99.90;;;;;;5009898;28;20420;-90
2021/11/16 08:57:20;;;;;;;67.78;48.95;;;7.70;99.90;;;;;;5017601;28;20933;-92
2021/11/16 08:59:46;;;;;;;66.80;48.95;;;7.60;99.90;;;;;;5026481;28;20735;-91
2021/11/16 09:02:13;;;;;;;65.60;47.83;;;7.70;99.90;;;;;;5027431;28;20371;-92
2021/11/16 09:04:40;;;;;;;68.28;50.13;;;7.70;99.90;;;;;;5027544;28;20382;-91
2021/11/16 09:07:31;;;;;;;65.25;47.50;;;7.80;99.90;;;;;;5027504;28;20438;-91
2021/11/16 09:10:10;;;;;;;69.97;49.45;;;7.90;99.90;;;;;;4999039;28;20919;-90
2021/11/16 09:12:42;;;;;;;72.50;49.85;;;8.00;99.90;;;;;;4998985;28;20441;-89
2021/11/16 09:15:10;;;;;;;71.55;50.60;;;8.00;99.90;;;;;;4999339;28;20390;-90
2021/11/16 09:17:39;;;;;;;70.90;50.27;;;7.90;99.90;;;;;;5010166;28;20721;-91
2021/11/16 09:20:25;;;;;;;71.35;50.20;;;8.00;99.90;;;;;;5021150;28;20385;-91
2021/11/16 09:22:55;;;;;;;70.38;50.42;;;7.90;99.90;;;;;;5019744;28;20381;-90
2021/11/16 09:25:24;;;;;;;73.53;51.05;;;7.90;99.90;;;;;;5019421;28;20401;-90
2021/11/16 09:27:58;;;;;;;72.03;51.33;;;7.80;99.90;;;;;;5032640;28;20391;-91
2021/11/16 09:30:32;;;;;;;77.55;51.20;;;7.80;99.90;;;;;;5035992;28;20383;-92
2021/11/16 09:33:21;;;;;;;78.45;51.65;;;8.00;99.90;;;;;;5044518;28;20387;-93
2021/11/16 09:35:55;;;;;;;73.03;49.45;;;7.90;99.90;;;;;;5014907;28;20825;-93
2021/11/16 09:38:47;;;;;;;71.97;50.80;;;7.90;99.90;;;;;;5017155;28;20386;-91
2021/11/16 09:41:28;;;;;;;73.43;50.97;;;8.00;99.90;;;;;;5004410;28;20438;-93
2021/11/16 09:44:14;;;;;;;71.35;50.05;;;8.10;99.90;;;;;;5016942;28;20394;-91
2021/11/16 09:47:17;;;;;;;73.77;51.57;;;8.10;99.90;;;;;;5005564;28;20386;-93
2021/11/16 09:49:52;;;;;;;72.10;50.67;;;8.10;99.90;;;;;;5001393;28;20462;-89
2021/11/16 09:52:20;;;;;;;68.85;48.00;;;8.10;99.90;;;;;;5036880;28;20403;-91
2021/11/16 09:54:58;;;;;;;71.68;48.67;;;8.10;99.90;;;;;;5039382;28;20383;-91
2021/11/16 09:57:36;;;;;;;65.57;47.35;;;8.10;99.90;;;;;;5020807;28;20978;-91
2021/11/16 10:00:09;;;;;;;67.57;46.83;;;8.30;99.90;;;;;;5004187;28;20502;-92
2021/11/16 10:02:47;;;;;;;66.93;47.50;;;8.40;99.90;;;;;;5041188;28;20469;-91
2021/11/16 10:05:21;;;;;;;71.60;51.15;;;8.70;99.90;;;;;;5023659;28;20392;-91
2021/11/16 10:07:49;;;;;;;71.80;48.80;;;8.50;99.90;;;;;;5011050;28;20403;-92
2021/11/16 10:10:16;;;;;;;67.40;48.75;;;8.50;99.90;;;;;;5009991;28;20385;-93
2021/11/16 10:12:59;;;;;;;67.07;48.25;;;8.50;99.90;;;;;;5010153;28;20390;-93
2021/11/16 10:15:29;;;;;;;72.60;50.97;;;8.60;99.90;;;;;;5002864;28;20395;-91
2021/11/16 10:17:55;;;;;;;71.85;51.40;;;8.60;99.90;;;;;;5020423;28;20379;-92
2021/11/16 10:20:30;;;;;;;71.17;50.07;;;8.70;99.90;;;;;;5018347;28;20386;-91
2021/11/16 10:23:00;;;;;;;77.47;51.97;;;8.80;99.90;;;;;;5017039;28;20383;-91
2021/11/16 10:25:29;;;;;;;74.20;50.53;;;8.60;99.90;;;;;;5037094;28;20383;-93
2021/11/16 10:27:59;;;;;;;74.33;51.90;;;8.50;99.90;;;;;;5035698;28;20457;-93
2021/11/16 10:30:27;;;;;;;71.63;51.20;;;8.40;99.90;;;;;;5037264;28;20387;-92
2021/11/16 10:33:17;;;;;;;71.75;51.72;;;8.50;99.90;;;;;;5035573;28;20394;-91
2021/11/16 10:35:50;;;;;;;78.37;54.20;;;8.60;99.90;;;;;;5031009;28;20451;-91
2021/11/16 10:38:42;;;;;;;72.00;51.60;;;8.50;99.90;;;;;;5030187;28;20407;-92
2021/11/16 10:41:16;;;;;;;75.57;53.35;;;8.60;99.90;;;;;;4986589;28;20442;-91
2021/11/16 10:44:06;;;;;;;74.70;51.30;;;8.60;99.90;;;;;;5004448;28;20401;-94
2021/11/16 10:46:35;;;;;;;74.77;51.73;;;8.60;99.90;;;;;;5021200;28;20394;-92
2021/11/16 10:49:11;;;;;;;78.20;54.57;;;8.80;99.90;;;;;;5004955;28;20491;-92
2021/11/16 10:51:39;;;;;;;74.88;52.20;;;8.70;99.90;;;;;;4999990;28;20489;-93
2021/11/16 10:54:06;;;;;;;71.82;51.55;;;8.70;99.90;;;;;;4998784;28;20379;-92
2021/11/16 10:56:36;;;;;;;74.63;50.17;;;8.70;99.90;;;;;;5008803;28;20407;-92
2021/11/16 10:59:07;;;;;;;74.25;51.85;;;8.90;99.90;;;;;;4998226;28;20383;-91
2021/11/16 11:01:46;;;;;;;73.55;50.10;;;9.00;99.90;;;;;;5031191;28;20391;-92
2021/11/16 11:04:13;;;;;;;77.57;51.80;;;8.90;99.90;;;;;;5011478;28;20841;-91
2021/11/16 11:06:43;;;;;;;79.78;54.20;;;8.70;99.90;;;;;;5019287;28;20401;-92
2021/11/16 11:09:09;;;;;;;83.43;55.63;;;8.80;99.90;;;;;;5022348;28;20447;-92
2021/11/16 11:11:54;;;;;;;81.47;55.42;;;8.70;99.90;;;;;;5026440;28;20383;-93
2021/11/16 11:14:22;;;;;;;78.55;54.38;;;8.60;99.90;;;;;;4999077;28;20391;-92
2021/11/16 11:16:56;;;;;;;82.63;56.38;;;8.70;99.90;;;;;;5031088;28;20935;-90
2021/11/16 11:19:32;;;;;;;81.22;55.75;;;8.40;99.90;;;;;;4976948;28;20384;-92
2021/11/16 11:22:11;;;;;;;83.82;56.83;;;8.50;99.90;;;;;;5014971;28;20807;-91
2021/11/16 11:24:42;;;;;;;82.87;56.47;;;8.50;99.90;;;;;;5017937;28;20421;-92
2021/11/16 11:29:46;;;;;;;80.00;55.15;;;8.50;99.90;;;;;;5014324;28;20379;-92
2021/11/16 11:32:15;;;;;;;82.20;56.13;;;8.60;99.90;;;;;;5033089;28;20383;-89
2021/11/16 11:34:58;;;;;;;80.13;55.08;;;8.60;99.90;;;;;;5031164;28;20387;-91
2021/11/16 11:37:59;;;;;;;79.65;55.45;;;8.70;99.90;;;;;;4996612;28;20805;-91
2021/11/16 11:40:31;;;;;;;80.85;56.17;;;8.80;99.90;;;;;;5000304;28;20391;-91
2021/11/16 11:43:04;;;;;;;78.17;54.37;;;8.90;99.90;;;;;;5008351;28;20399;-92
2021/11/16 11:45:38;;;;;;;78.78;55.25;;;8.90;99.90;;;;;;5032445;28;20387;-91
2021/11/16 11:48:03;;;;;;;76.40;52.53;;;9.10;99.90;;;;;;5011210;28;20497;-92
2021/11/16 11:50:44;;;;;;;82.43;56.77;;;9.20;99.90;;;;;;5011165;28;20384;-90
2021/11/16 11:53:25;;;;;;;84.47;56.33;;;9.20;99.90;;;;;;4979946;28;20405;-91
2021/11/16 11:55:56;;;;;;;86.35;57.10;;;9.10;99.90;;;;;;5013124;28;20413;-92
2021/11/16 11:58:26;;;;;;;77.72;54.53;;;9.10;99.90;;;;;;4982230;28;20383;-91
2021/11/16 12:00:55;;;;;;;84.75;56.40;;;9.00;99.90;;;;;;5031668;28;20396;-92
2021/11/16 12:03:22;;;;;;;85.15;56.90;;;8.90;99.90;;;;;;4996634;28;20379;-92
2021/11/16 12:05:48;;;;;;;80.18;53.50;;;8.90;99.90;;;;;;5001023;28;20387;-91
2021/11/16 12:08:15;;;;;;;83.45;55.63;;;9.00;99.90;;;;;;4997235;28;20431;-92
2021/11/16 12:10:43;;;;;;;82.38;55.13;;;9.00;99.90;;;;;;4998745;28;20395;-92
2021/11/16 12:13:10;;;;;;;87.78;57.00;;;9.10;99.90;;;;;;4998025;28;20403;-91
2021/11/16 12:16:08;;;;;;;82.13;56.22;;;9.00;99.90;;;;;;4999107;28;20406;-90
2021/11/16 12:19:07;;;;;;;85.47;56.20;;;9.00;99.90;;;;;;5019931;28;20438;-92
2021/11/16 12:21:41;;;;;;;87.20;57.67;;;9.00;99.90;;;;;;5002011;28;20466;-92
2021/11/16 12:24:33;;;;;;;84.38;57.67;;;9.00;99.90;;;;;;5033175;28;20399;-91
2021/11/16 12:27:06;;;;;;;86.63;57.47;;;8.90;99.90;;;;;;4994741;28;20411;-92
2021/11/16 12:29:38;;;;;;;86.40;57.35;;;8.90;99.90;;;;;;4998012;28;20399;-92
2021/11/16 12:32:32;;;;;;;78.97;53.63;;;9.00;99.90;;;;;;4997527;28;20870;-90
2021/11/16 12:35:12;;;;;;;83.30;55.85;;;9.00;99.90;;;;;;4997508;28;20386;-92
2021/11/16 12:37:47;;;;;;;84.10;56.27;;;9.00;99.90;;;;;;4997602;28;20393;-92
2021/11/16 12:40:15;;;;;;;82.60;55.20;;;9.00;99.90;;;;;;5002955;28;20876;-91
2021/11/16 12:43:08;;;;;;;85.13;55.85;;;9.20;99.90;;;;;;4997671;28;20407;-92
2021/11/16 12:45:43;;;;;;;82.00;55.05;;;9.10;99.90;;;;;;4997726;28;20398;-92
2021/11/16 12:48:13;;;;;;;85.82;58.47;;;9.10;99.90;;;;;;5006932;28;20370;-92
2021/11/16 12:51:09;;;;;;;83.53;55.55;;;9.20;99.90;;;;;;5011337;28;20386;-92
2021/11/16 12:53:58;;;;;;;88.95;57.50;;;9.20;99.90;;;;;;5001829;28;20402;-92
2021/11/16 12:56:48;;;;;;;86.55;55.45;;;9.10;99.90;;;;;;5000227;28;20403;-92
2021/11/16 12:59:15;;;;;;;79.20;54.08;;;9.10;99.90;;;;;;5016135;28;20433;-93
2021/11/16 13:01:48;;;;;;;80.47;55.47;;;9.20;99.90;;;;;;5002357;28;20460;-93
2021/11/16 13:04:16;;;;;;;86.78;56.10;;;9.30;99.90;;;;;;5000505;28;20807;-92
2021/11/16 13:07:05;;;;;;;85.35;56.30;;;9.20;99.90;;;;;;5001239;28;20399;-93
2021/11/16 13:10:03;;;;;;;88.18;58.47;;;9.20;99.90;;;;;;5008373;28;20417;-92